createdAt,value
2017-08-27T00:01:29.395Z,99.90
2017-08-27T00:03:56.957Z,99.90
2017-08-27T00:06:25.315Z,99.90
2017-08-27T00:08:52.905Z,99.90
2017-08-27T00:11:20.507Z,99.90
2017-08-27T00:13:48.096Z,99.90
2017-08-27T00:16:15.678Z,99.90
2017-08-27T00:18:43.244Z,99.90
2017-08-27T00:21:10.814Z,99.90
2017-08-27T00:23:39.166Z,99.90
2017-08-27T00:26:06.725Z,99.90
2017-08-27T00:28:34.300Z,99.90
2017-08-27T00:31:01.921Z,99.90
2017-08-27T00:33:29.469Z,99.90
2017-08-27T00:35:57.056Z,99.90
2017-08-27T00:38:24.634Z,99.90
2017-08-27T00:40:52.241Z,99.90
2017-08-27T00:43:20.235Z,99.90
2017-08-27T00:45:47.856Z,99.90
2017-08-27T00:48:15.439Z,99.90
2017-08-27T00:50:43.021Z,99.90
2017-08-27T00:53:10.595Z,99.90
2017-08-27T00:55:38.198Z,99.90
2017-08-27T00:58:06.557Z,99.90
2017-08-27T01:00:34.157Z,99.90
2017-08-27T01:03:02.169Z,99.90
2017-08-27T01:05:29.733Z,99.90
2017-08-27T01:07:57.939Z,99.90
2017-08-27T01:10:25.593Z,99.90
2017-08-27T01:12:53.386Z,99.90
2017-08-27T01:15:20.968Z,99.90
2017-08-27T01:17:48.570Z,99.90
2017-08-27T01:20:16.171Z,99.90
2017-08-27T01:22:43.738Z,99.90
2017-08-27T01:25:11.313Z,99.90
2017-08-27T01:27:38.903Z,99.90
2017-08-27T01:30:06.812Z,99.90
2017-08-27T01:32:34.413Z,99.90
2017-08-27T01:35:02.009Z,99.90
2017-08-27T01:37:29.585Z,99.90
2017-08-27T01:39:57.960Z,99.90
2017-08-27T01:42:25.519Z,99.90
2017-08-27T01:44:53.124Z,99.90
2017-08-27T01:47:20.690Z,99.90
2017-08-27T01:49:48.290Z,99.90
2017-08-27T01:52:15.850Z,99.90
2017-08-27T01:54:43.414Z,99.90
2017-08-27T01:57:11.010Z,99.90
2017-08-27T01:59:38.574Z,99.90
2017-08-27T02:02:06.139Z,99.90
2017-08-27T02:04:33.701Z,99.90
2017-08-27T02:07:01.271Z,99.90
2017-08-27T02:09:28.867Z,99.90
2017-08-27T02:11:56.458Z,99.90
2017-08-27T02:14:24.027Z,99.90
2017-08-27T02:16:51.594Z,99.90
2017-08-27T02:19:19.940Z,99.90
2017-08-27T02:21:47.507Z,99.90
2017-08-27T02:24:15.065Z,99.90
2017-08-27T02:26:42.661Z,99.90
2017-08-27T02:29:10.229Z,99.90
2017-08-27T02:31:37.830Z,99.90
2017-08-27T02:34:05.409Z,99.90
2017-08-27T02:36:32.983Z,99.90
2017-08-27T02:39:00.572Z,99.90
2017-08-27T02:41:28.257Z,99.90
2017-08-27T02:43:55.834Z,99.90
2017-08-27T02:46:23.399Z,99.90
2017-08-27T02:48:51.005Z,99.90
2017-08-27T02:51:18.560Z,99.90
2017-08-27T02:53:46.927Z,99.90
2017-08-27T02:56:14.474Z,99.90
2017-08-27T02:58:42.061Z,99.90
2017-08-27T03:01:10.406Z,99.90
2017-08-27T03:03:37.985Z,99.90
2017-08-27T03:06:05.546Z,99.90
2017-08-27T03:08:33.928Z,99.90
2017-08-27T03:11:01.504Z,99.90
2017-08-27T03:13:29.099Z,99.90
2017-08-27T03:15:56.706Z,99.90
2017-08-27T03:18:25.265Z,99.90
2017-08-27T03:20:52.887Z,99.90
2017-08-27T03:23:20.490Z,99.90
2017-08-27T03:25:48.066Z,99.90
2017-08-27T03:28:15.718Z,99.90
2017-08-27T03:30:43.279Z,99.90
2017-08-27T03:33:10.860Z,99.90
2017-08-27T03:35:38.621Z,99.90
2017-08-27T03:38:06.173Z,99.90
2017-08-27T03:40:33.733Z,99.90
2017-08-27T03:43:01.323Z,99.90
2017-08-27T03:45:29.654Z,99.90
2017-08-27T03:47:57.269Z,99.90
2017-08-27T03:50:24.867Z,99.90
2017-08-27T03:52:52.437Z,99.90
2017-08-27T03:55:20.049Z,99.90
2017-08-27T03:57:47.613Z,99.90
2017-08-27T04:00:15.182Z,99.90
2017-08-27T04:02:42.777Z,99.90
2017-08-27T04:05:10.363Z,99.90
2017-08-27T04:07:37.979Z,99.90
2017-08-27T04:10:05.567Z,99.90
2017-08-27T04:12:33.145Z,99.90
2017-08-27T04:15:00.706Z,99.90
2017-08-27T04:17:28.353Z,99.90
2017-08-27T04:19:55.943Z,99.90
2017-08-27T04:22:23.498Z,99.90
2017-08-27T04:24:51.066Z,99.90
2017-08-27T04:27:18.697Z,99.90
2017-08-27T04:29:46.279Z,99.90
2017-08-27T04:32:13.855Z,99.90
2017-08-27T04:34:41.413Z,99.90
2017-08-27T04:37:09.795Z,99.90
2017-08-27T04:39:37.392Z,99.90
2017-08-27T04:42:05.003Z,99.90
2017-08-27T04:44:32.567Z,99.90
2017-08-27T04:47:00.146Z,99.90
2017-08-27T04:49:27.719Z,99.90
2017-08-27T04:51:55.279Z,99.90
2017-08-27T04:54:22.960Z,99.90
2017-08-27T04:56:50.518Z,99.90
2017-08-27T04:59:18.094Z,99.90
2017-08-27T05:01:45.649Z,99.90
2017-08-27T05:04:13.227Z,99.90
2017-08-27T05:06:40.793Z,99.90
2017-08-27T05:09:08.369Z,99.90
2017-08-27T05:11:35.954Z,99.90
2017-08-27T05:14:03.522Z,99.90
2017-08-27T05:16:31.106Z,99.90
2017-08-27T05:18:58.681Z,99.90
2017-08-27T05:21:26.245Z,99.90
2017-08-27T05:23:53.834Z,99.90
2017-08-27T05:26:21.402Z,99.90
2017-08-27T05:28:48.961Z,99.90
2017-08-27T05:31:16.530Z,99.90
2017-08-27T05:33:44.094Z,99.90
2017-08-27T05:36:11.681Z,99.90
2017-08-27T05:38:39.240Z,99.90
2017-08-27T05:41:06.833Z,99.90
2017-08-27T05:43:34.465Z,99.90
2017-08-27T05:46:02.069Z,99.90
2017-08-27T05:48:29.620Z,99.90
2017-08-27T05:50:57.193Z,99.90
2017-08-27T05:53:24.765Z,99.90
2017-08-27T05:55:52.346Z,99.90
2017-08-27T05:58:19.939Z,99.90
2017-08-27T06:00:47.507Z,99.90
2017-08-27T06:03:15.093Z,99.90
2017-08-27T06:05:42.783Z,99.90
2017-08-27T06:08:10.352Z,99.90
2017-08-27T06:10:37.947Z,99.90
2017-08-27T06:13:05.505Z,99.90
2017-08-27T06:15:33.125Z,99.90
2017-08-27T06:18:00.689Z,99.90
2017-08-27T06:20:28.341Z,99.90
2017-08-27T06:22:55.919Z,99.90
2017-08-27T06:25:23.485Z,99.90
2017-08-27T06:27:51.076Z,99.90
2017-08-27T06:30:18.647Z,97.90
2017-08-27T06:32:46.361Z,95.60
2017-08-27T06:35:13.936Z,93.70
2017-08-27T06:37:41.533Z,92.20
2017-08-27T06:40:09.091Z,92.40
2017-08-27T06:42:36.729Z,90.90
2017-08-27T06:45:04.326Z,90.30
2017-08-27T06:47:31.889Z,83.80
2017-08-27T06:49:59.486Z,80.60
2017-08-27T06:52:27.053Z,72.80
2017-08-27T06:54:54.621Z,71.70
2017-08-27T06:57:22.325Z,62.00
2017-08-27T06:59:49.922Z,64.20
2017-08-27T07:02:17.476Z,66.90
2017-08-27T07:04:45.054Z,62.80
2017-08-27T07:07:13.362Z,67.60
2017-08-27T07:09:41.721Z,67.10
2017-08-27T07:12:09.320Z,67.10
2017-08-27T07:14:36.989Z,66.10
2017-08-27T07:17:04.551Z,70.70
2017-08-27T07:19:32.137Z,72.10
2017-08-27T07:21:59.734Z,77.10
2017-08-27T07:24:27.310Z,78.50
2017-08-27T07:26:54.870Z,81.90
2017-08-27T07:29:22.630Z,83.60
2017-08-27T07:31:50.241Z,81.10
2017-08-27T07:34:17.845Z,82.40
2017-08-27T07:36:45.414Z,79.80
2017-08-27T07:39:13.009Z,81.60
2017-08-27T07:41:40.662Z,72.90
2017-08-27T07:44:08.240Z,66.10
2017-08-27T07:46:35.821Z,61.00
2017-08-27T07:49:03.436Z,57.60
2017-08-27T07:51:31.055Z,53.90
2017-08-27T07:53:58.626Z,50.20
2017-08-27T07:56:26.189Z,49.30
2017-08-27T07:58:53.767Z,47.20
2017-08-27T08:01:21.306Z,44.40
2017-08-27T08:03:48.864Z,44.60
2017-08-27T08:06:16.513Z,46.20
2017-08-27T08:08:44.091Z,42.80
2017-08-27T08:11:11.666Z,41.10
2017-08-27T08:13:39.247Z,41.70
2017-08-27T08:16:07.604Z,39.80
2017-08-27T08:18:35.971Z,40.60
2017-08-27T08:21:03.593Z,40.50
2017-08-27T08:23:31.232Z,39.80
2017-08-27T08:25:58.812Z,36.20
2017-08-27T08:28:26.423Z,35.80
2017-08-27T08:30:54.278Z,36.40
2017-08-27T08:33:21.859Z,37.80
2017-08-27T08:35:49.423Z,36.90
2017-08-27T08:38:17.787Z,38.40
2017-08-27T08:40:45.369Z,38.30
2017-08-27T08:43:13.001Z,36.70
2017-08-27T08:45:40.586Z,36.40
2017-08-27T08:48:08.937Z,32.10
2017-08-27T08:50:36.524Z,32.00
2017-08-27T08:53:04.119Z,33.10
2017-08-27T08:55:31.686Z,34.30
2017-08-27T08:57:59.276Z,34.20
2017-08-27T09:00:26.885Z,34.80
2017-08-27T09:02:55.243Z,32.20
2017-08-27T09:05:22.813Z,32.10
2017-08-27T09:07:51.184Z,30.70
2017-08-27T09:10:18.953Z,30.70
2017-08-27T09:12:46.557Z,30.00
2017-08-27T09:15:14.151Z,31.90
2017-08-27T09:17:41.715Z,31.20
2017-08-27T09:20:09.286Z,29.50
2017-08-27T09:22:36.887Z,31.00
2017-08-27T09:25:04.471Z,29.50
2017-08-27T09:27:32.025Z,26.80
2017-08-27T09:29:59.629Z,29.80
2017-08-27T09:32:27.194Z,28.30
2017-08-27T09:34:54.878Z,29.70
2017-08-27T09:37:22.587Z,29.80
2017-08-27T09:39:50.154Z,28.70
2017-08-27T09:42:17.734Z,31.90
2017-08-27T09:44:45.319Z,28.90
2017-08-27T09:47:13.017Z,28.30
2017-08-27T09:49:40.543Z,30.80
2017-08-27T09:52:08.154Z,32.20
2017-08-27T09:54:35.751Z,29.20
2017-08-27T09:57:03.315Z,28.50
2017-08-27T09:59:30.886Z,28.10
2017-08-27T10:01:59.413Z,28.30
2017-08-27T10:04:27.121Z,27.70
2017-08-27T10:06:55.537Z,28.40
2017-08-27T10:09:23.120Z,29.80
2017-08-27T10:11:50.734Z,29.90
2017-08-27T10:14:18.313Z,28.50
2017-08-27T10:16:46.682Z,29.50
2017-08-27T10:19:15.028Z,29.50
2017-08-27T10:21:42.638Z,29.50
2017-08-27T10:24:10.246Z,29.20
2017-08-27T10:26:37.813Z,28.90
2017-08-27T10:29:05.405Z,30.10
2017-08-27T10:31:32.986Z,29.10
2017-08-27T10:34:00.617Z,29.50
2017-08-27T10:36:28.233Z,30.00
2017-08-27T10:38:56.781Z,28.40
2017-08-27T10:41:24.358Z,30.40
2017-08-27T10:43:51.958Z,30.10
2017-08-27T10:46:20.538Z,30.40
2017-08-27T10:48:48.647Z,30.70
2017-08-27T10:51:16.263Z,28.80
2017-08-27T10:53:43.862Z,29.50
2017-08-27T10:56:11.438Z,29.10
2017-08-27T10:58:39.780Z,28.90
2017-08-27T11:01:07.427Z,28.80
2017-08-27T11:03:35.029Z,30.50
2017-08-27T11:06:02.587Z,28.50
2017-08-27T11:08:30.150Z,31.40
2017-08-27T11:10:57.732Z,29.50
2017-08-27T11:13:25.280Z,32.60
2017-08-27T11:15:52.841Z,29.40
2017-08-27T11:18:20.423Z,30.10
2017-08-27T11:20:48.100Z,31.00
2017-08-27T11:23:15.704Z,31.20
2017-08-27T11:25:43.292Z,30.60
2017-08-27T11:28:10.865Z,29.20
2017-08-27T11:30:39.186Z,31.90
2017-08-27T11:33:06.782Z,31.80
2017-08-27T11:35:34.395Z,33.00
2017-08-27T11:38:01.986Z,33.50
2017-08-27T11:40:29.557Z,32.20
2017-08-27T11:42:57.152Z,33.50
2017-08-27T11:45:25.477Z,36.30
2017-08-27T11:47:53.045Z,36.30
2017-08-27T11:50:20.631Z,33.50
2017-08-27T11:52:48.210Z,32.80
2017-08-27T11:55:15.774Z,32.40
2017-08-27T11:57:43.370Z,35.70
2017-08-27T12:00:11.070Z,38.30
2017-08-27T12:02:38.648Z,36.50
2017-08-27T12:05:06.254Z,38.00
2017-08-27T12:07:34.090Z,36.50
2017-08-27T12:10:01.686Z,37.20
2017-08-27T12:12:29.288Z,38.40
2017-08-27T12:14:56.902Z,41.00
2017-08-27T12:17:24.497Z,43.90
2017-08-27T12:19:52.578Z,44.20
2017-08-27T12:22:20.217Z,44.90
2017-08-27T12:24:47.789Z,45.90
2017-08-27T12:27:15.453Z,46.60
2017-08-27T12:29:43.026Z,47.70
2017-08-27T12:32:10.743Z,47.30
2017-08-27T12:34:38.321Z,44.30
2017-08-27T12:37:05.869Z,46.00
2017-08-27T12:39:33.471Z,45.60
2017-08-27T12:42:01.054Z,43.50
2017-08-27T12:44:28.633Z,44.50
2017-08-27T12:46:56.426Z,43.70
2017-08-27T12:49:24.077Z,43.00
2017-08-27T12:51:51.723Z,43.40
2017-08-27T12:54:19.313Z,43.20
2017-08-27T12:56:47.002Z,43.50
2017-08-27T12:59:14.566Z,42.70
2017-08-27T13:01:42.129Z,41.30
2017-08-27T13:04:09.686Z,42.50
2017-08-27T13:06:37.272Z,42.80
2017-08-27T13:09:05.584Z,43.50
2017-08-27T13:11:33.158Z,43.30
2017-08-27T13:14:00.808Z,41.20
2017-08-27T13:16:28.369Z,41.20
2017-08-27T13:18:55.987Z,43.00
2017-08-27T13:21:23.562Z,43.10
2017-08-27T13:23:51.136Z,44.60
2017-08-27T13:26:18.697Z,43.20
2017-08-27T13:28:46.264Z,42.00
2017-08-27T13:31:13.853Z,44.10
2017-08-27T13:33:41.435Z,41.40
2017-08-27T13:36:09.017Z,40.00
2017-08-27T13:38:36.635Z,41.50
2017-08-27T13:41:04.236Z,41.30
2017-08-27T13:43:31.822Z,41.90
2017-08-27T13:45:59.378Z,42.30
2017-08-27T13:48:26.974Z,41.50
2017-08-27T13:50:54.569Z,45.70
2017-08-27T13:53:22.172Z,45.90
2017-08-27T13:55:49.714Z,47.40
2017-08-27T13:58:17.478Z,47.10
2017-08-27T14:00:45.849Z,48.70
2017-08-27T14:03:13.444Z,48.70
2017-08-27T14:05:41.017Z,47.10
2017-08-27T14:08:08.719Z,46.70
2017-08-27T14:10:36.317Z,47.10
2017-08-27T14:13:03.914Z,46.10
2017-08-27T14:15:31.489Z,47.70
2017-08-27T14:17:59.290Z,46.30
2017-08-27T14:20:27.627Z,51.10
2017-08-27T14:22:55.183Z,51.50
2017-08-27T14:25:22.753Z,49.00
2017-08-27T14:27:50.379Z,47.20
2017-08-27T14:30:17.942Z,48.90
2017-08-27T14:32:45.517Z,45.20
2017-08-27T14:35:13.106Z,46.40
2017-08-27T14:37:40.681Z,51.10
2017-08-27T14:40:08.253Z,48.20
2017-08-27T14:42:35.819Z,51.10
2017-08-27T14:45:03.411Z,50.30
2017-08-27T14:47:30.969Z,49.50
2017-08-27T14:49:58.574Z,52.20
2017-08-27T14:52:26.290Z,55.00
2017-08-27T14:54:53.865Z,53.10
2017-08-27T14:57:21.437Z,50.30
2017-08-27T14:59:49.051Z,52.00
2017-08-27T15:02:16.646Z,52.70
2017-08-27T15:04:44.257Z,54.40
2017-08-27T15:07:11.854Z,52.70
2017-08-27T15:09:39.419Z,50.60
2017-08-27T15:12:06.994Z,51.10
2017-08-27T15:14:34.652Z,52.10
2017-08-27T15:17:02.241Z,52.60
2017-08-27T15:19:29.823Z,52.40
2017-08-27T15:21:57.679Z,52.40
2017-08-27T15:24:25.235Z,52.80
2017-08-27T15:26:52.837Z,54.90
2017-08-27T15:29:21.184Z,53.50
2017-08-27T15:31:48.782Z,53.30
2017-08-27T15:34:17.123Z,54.90
2017-08-27T15:36:44.745Z,54.90
2017-08-27T15:39:12.314Z,53.30
2017-08-27T15:41:39.874Z,53.50
2017-08-27T15:44:07.466Z,54.70
2017-08-27T15:46:35.029Z,54.30
2017-08-27T15:49:02.638Z,54.20
2017-08-27T15:51:30.957Z,53.00
2017-08-27T15:53:58.551Z,53.00
2017-08-27T15:56:26.274Z,53.40
2017-08-27T15:58:53.823Z,55.70
2017-08-27T16:01:21.412Z,54.20
2017-08-27T16:03:49.223Z,54.10
2017-08-27T16:06:16.806Z,53.80
2017-08-27T16:08:44.470Z,53.20
2017-08-27T16:11:12.018Z,55.20
2017-08-27T16:13:39.595Z,54.80
2017-08-27T16:16:07.420Z,54.20
2017-08-27T16:18:34.970Z,56.00
2017-08-27T16:21:02.627Z,55.10
2017-08-27T16:23:30.209Z,53.90
2017-08-27T16:25:58.562Z,55.50
2017-08-27T16:28:26.127Z,55.40
2017-08-27T16:30:53.915Z,53.90
2017-08-27T16:33:21.462Z,55.00
2017-08-27T16:35:49.033Z,56.50
2017-08-27T16:38:16.614Z,57.50
2017-08-27T16:40:44.157Z,58.30
2017-08-27T16:43:11.750Z,56.20
2017-08-27T16:45:39.303Z,57.30
2017-08-27T16:48:06.862Z,56.40
2017-08-27T16:50:34.709Z,56.80
2017-08-27T16:53:02.290Z,57.30
2017-08-27T16:55:29.868Z,57.70
2017-08-27T16:57:58.033Z,58.90
2017-08-27T17:00:25.660Z,59.40
2017-08-27T17:02:53.274Z,58.60
2017-08-27T17:05:20.883Z,60.20
2017-08-27T17:07:48.799Z,61.20
2017-08-27T17:10:16.354Z,60.00
2017-08-27T17:12:43.966Z,59.80
2017-08-27T17:15:11.610Z,59.60
2017-08-27T17:17:39.195Z,60.70
2017-08-27T17:20:06.873Z,63.10
2017-08-27T17:22:34.442Z,62.00
2017-08-27T17:25:02.026Z,59.90
2017-08-27T17:27:29.622Z,61.70
2017-08-27T17:29:57.198Z,61.90
2017-08-27T17:32:24.775Z,59.90
2017-08-27T17:34:53.149Z,61.20
2017-08-27T17:37:20.802Z,61.10
2017-08-27T17:39:48.395Z,60.40
2017-08-27T17:42:15.922Z,62.30
2017-08-27T17:44:43.524Z,64.10
2017-08-27T17:47:11.103Z,60.30
2017-08-27T17:49:38.696Z,64.40
2017-08-27T17:52:06.328Z,64.20
2017-08-27T17:54:33.917Z,62.00
2017-08-27T17:57:01.516Z,63.10
2017-08-27T17:59:29.083Z,62.90
2017-08-27T18:01:56.646Z,64.50
2017-08-27T18:04:24.230Z,64.30
2017-08-27T18:06:51.792Z,65.10
2017-08-27T18:09:20.139Z,66.30
2017-08-27T18:11:47.719Z,66.30
2017-08-27T18:14:15.292Z,68.80
2017-08-27T18:16:42.867Z,69.10
2017-08-27T18:19:10.450Z,68.20
2017-08-27T18:21:38.049Z,68.70
2017-08-27T18:24:05.630Z,71.40
2017-08-27T18:26:33.222Z,74.90
2017-08-27T18:29:00.820Z,75.60
2017-08-27T18:31:29.177Z,78.20
2017-08-27T18:33:56.790Z,78.10
2017-08-27T18:36:24.366Z,80.10
2017-08-27T18:38:51.977Z,80.00
2017-08-27T18:41:19.562Z,78.50
2017-08-27T18:43:47.163Z,81.00
2017-08-27T18:46:14.737Z,81.40
2017-08-27T18:48:42.365Z,83.10
2017-08-27T18:51:09.933Z,85.00
2017-08-27T18:53:37.519Z,87.20
2017-08-27T18:56:05.117Z,88.40
2017-08-27T18:58:32.705Z,90.10
2017-08-27T19:01:00.298Z,90.00
2017-08-27T19:03:27.911Z,90.70
2017-08-27T19:05:55.457Z,91.40
2017-08-27T19:08:23.050Z,91.90
2017-08-27T19:10:50.635Z,92.40
2017-08-27T19:13:18.191Z,92.70
2017-08-27T19:15:45.858Z,93.00
2017-08-27T19:18:13.447Z,93.50
2017-08-27T19:20:41.007Z,94.00
2017-08-27T19:23:09.605Z,94.60
2017-08-27T19:25:37.588Z,94.60
2017-08-27T19:28:05.625Z,94.50
2017-08-27T19:30:33.609Z,94.50
2017-08-27T19:33:01.191Z,94.40
2017-08-27T19:35:28.811Z,94.80
2017-08-27T19:37:56.420Z,95.30
2017-08-27T19:40:24.019Z,95.60
2017-08-27T19:42:51.610Z,95.70
2017-08-27T19:45:19.220Z,95.50
2017-08-27T19:47:46.814Z,95.90
2017-08-27T19:50:14.378Z,96.40
2017-08-27T19:52:41.965Z,96.50
2017-08-27T19:55:09.535Z,96.50
2017-08-27T19:57:37.383Z,96.40
2017-08-27T20:00:04.975Z,96.60
2017-08-27T20:02:32.563Z,96.50
2017-08-27T20:05:00.217Z,96.90
2017-08-27T20:07:27.810Z,97.20
2017-08-27T20:09:55.403Z,97.20
2017-08-27T20:12:23.059Z,97.80
2017-08-27T20:14:50.645Z,98.00
2017-08-27T20:17:18.228Z,98.60
2017-08-27T20:19:45.806Z,98.70
2017-08-27T20:22:13.405Z,98.30
2017-08-27T20:24:40.964Z,98.60
2017-08-27T20:27:08.643Z,98.90
2017-08-27T20:29:36.990Z,99.40
2017-08-27T20:32:04.613Z,99.40
2017-08-27T20:34:32.246Z,99.70
2017-08-27T20:37:00.593Z,99.90
2017-08-27T20:39:28.194Z,99.90
2017-08-27T20:41:56.572Z,99.90
2017-08-27T20:44:24.173Z,99.90
2017-08-27T20:46:51.825Z,99.90
2017-08-27T20:49:19.370Z,99.90
2017-08-27T20:51:47.004Z,99.90
2017-08-27T20:54:14.561Z,99.90
2017-08-27T20:56:42.160Z,99.90
2017-08-27T20:59:09.732Z,99.90
2017-08-27T21:01:37.310Z,99.90
2017-08-27T21:04:04.862Z,99.90
2017-08-27T21:06:32.484Z,99.90
2017-08-27T21:09:00.082Z,99.90
2017-08-27T21:11:27.642Z,99.90
2017-08-27T21:13:55.235Z,99.90
2017-08-27T21:16:22.818Z,99.90
2017-08-27T21:18:50.381Z,99.90
2017-08-27T21:21:17.967Z,99.90
2017-08-27T21:23:45.555Z,99.90
2017-08-27T21:26:13.153Z,99.90
2017-08-27T21:28:40.762Z,99.90
2017-08-27T21:31:08.382Z,99.90
2017-08-27T21:33:35.979Z,99.90
2017-08-27T21:36:03.566Z,99.90
2017-08-27T21:38:31.143Z,99.90
2017-08-27T21:40:58.709Z,99.90
2017-08-27T21:43:26.305Z,99.90
2017-08-27T21:45:53.899Z,99.90
2017-08-27T21:48:21.464Z,99.90
2017-08-27T21:50:49.206Z,99.90
2017-08-27T21:53:16.879Z,99.90
2017-08-27T21:55:44.490Z,99.90
2017-08-27T21:58:12.085Z,99.90
2017-08-27T22:00:39.680Z,99.90
2017-08-27T22:03:07.271Z,99.90
2017-08-27T22:05:34.982Z,99.90
2017-08-27T22:08:02.578Z,99.90
2017-08-27T22:10:30.158Z,99.90
2017-08-27T22:12:57.726Z,99.90
2017-08-27T22:15:25.294Z,99.90
2017-08-27T22:17:52.879Z,99.90
2017-08-27T22:20:20.465Z,99.90
2017-08-27T22:22:48.129Z,99.90
2017-08-27T22:25:15.771Z,99.90
2017-08-27T22:27:43.326Z,99.90
2017-08-27T22:30:10.901Z,99.90
2017-08-27T22:32:38.582Z,99.90
2017-08-27T22:35:06.155Z,99.90
2017-08-27T22:37:33.783Z,99.90
2017-08-27T22:40:01.366Z,99.90
2017-08-27T22:42:28.977Z,99.90
2017-08-27T22:44:56.563Z,99.90
2017-08-27T22:47:24.130Z,99.90
2017-08-27T22:49:51.729Z,99.90
2017-08-27T22:52:19.291Z,99.90
2017-08-27T22:54:46.955Z,99.90
2017-08-27T22:57:14.547Z,99.90
2017-08-27T22:59:42.110Z,99.90
2017-08-27T23:02:09.668Z,99.90
2017-08-27T23:04:38.003Z,99.90
2017-08-27T23:07:05.566Z,99.90
2017-08-27T23:09:33.417Z,99.90
2017-08-27T23:12:01.018Z,99.90
2017-08-27T23:14:28.622Z,99.90
2017-08-27T23:16:56.170Z,99.90
2017-08-27T23:19:23.743Z,99.90
2017-08-27T23:21:51.349Z,99.90
2017-08-27T23:24:18.946Z,99.90
2017-08-27T23:26:47.289Z,99.90
2017-08-27T23:29:14.958Z,99.90
2017-08-27T23:31:42.537Z,99.90
2017-08-27T23:34:10.872Z,99.90
2017-08-27T23:36:38.601Z,99.90
2017-08-27T23:39:06.212Z,99.90
2017-08-27T23:41:33.766Z,99.90
2017-08-27T23:44:01.437Z,99.90
2017-08-27T23:46:28.997Z,99.90
2017-08-27T23:48:56.603Z,99.90
2017-08-27T23:51:24.187Z,99.90
2017-08-27T23:53:51.786Z,99.90
2017-08-27T23:56:19.365Z,99.90
2017-08-27T23:58:46.959Z,99.90
